• Join FlightAware (Why Join?)
  • Login
  • US Flag 
12:30PM EDT


 

Airport Tracker/Info


-or-


 

Live Flight TrackerFlight Track Log ✈ AVN10 ✈ 18-Nov-2013 ✈ NVVV / VLI - YSSY / SYD

Flight Track Log - Related Links

Times and Time Zones

All times are in EST time to prevent confusion due to time zone crossing. See the AVN10 flight status page for this flight to view local times or setup timezone preferences in your user account.

Time Position Orientation Groundspeed Altitude Reporting Facility
EST Latitude Longitude Course Direction KTS MPH feet Rate Location/Type
03:02PM -18.0113 168.1608 206° Southwest  Level FlightAware Approximate
03:03PM -18.1153 168.1077 206° Southwest  Level FlightAware Approximate
03:04PM -18.2193 168.0545 206° Southwest  Level FlightAware Approximate
03:05PM -18.3232 168.0013 206° Southwest  Level FlightAware Approximate
03:06PM -18.4271 167.9480 206° Southwest  Level FlightAware Approximate
03:07PM -18.5148 167.8685 204° Southwest  Level Estimated
03:08PM -18.6206 167.8195 204° Southwest  Level FlightAware Approximate
03:09PM -18.7264 167.7704 204° Southwest  Level FlightAware Approximate
03:10PM -18.8322 167.7212 204° Southwest  Level FlightAware Approximate
03:11PM -18.9380 167.6719 204° Southwest  Level FlightAware Approximate
03:12PM -19.0437 167.6226 204° Southwest  Level FlightAware Approximate
03:13PM -19.1495 167.5732 204° Southwest  Level FlightAware Approximate
03:14PM -19.2552 167.5238 204° Southwest  Level FlightAware Approximate
03:15PM -19.3610 167.4743 204° Southwest  Level FlightAware Approximate
03:16PM -19.4667 167.4247 204° Southwest  Level FlightAware Approximate
03:17PM -19.5724 167.3751 204° Southwest  Level FlightAware Approximate
03:18PM -19.6780 167.3254 204° Southwest  Level FlightAware Approximate
03:19PM -19.7837 167.2756 204° Southwest  Level FlightAware Approximate
03:20PM -19.8894 167.2258 204° Southwest  Level FlightAware Approximate
03:21PM -19.9950 167.1759 204° Southwest  Level FlightAware Approximate
03:22PM -20.1006 167.1259 204° Southwest  Level FlightAware Approximate
03:23PM -20.2062 167.0759 204° Southwest  Level FlightAware Approximate
03:24PM -20.3118 167.0258 204° Southwest  Level FlightAware Approximate
03:25PM -20.4174 166.9756 204° Southwest  Level FlightAware Approximate
03:26PM -20.5230 166.9254 204° Southwest  Level FlightAware Approximate
03:26PM -20.3840 166.9820 204° Southwest 456 525 38,000  Level FlightAware
03:27PM -20.6286 166.8751 204° Southwest  Level FlightAware Approximate
03:27PM -20.4890 166.9320 204° Southwest 456 525 38,000  Level FlightAware
03:28PM -20.5530 166.9020 204° Southwest 455 524 38,000  Level FlightAware
03:29PM -20.6760 166.8440 204° Southwest 452 520 38,000  Level FlightAware
03:29PM -20.7470 166.8100 204° Southwest 453 521 38,000  Level FlightAware
03:30PM -20.8260 166.7730 204° Southwest 453 521 38,000  Level FlightAware
03:30PM -20.8820 166.7470 203° Southwest 454 522 38,000  Level FlightAware
03:31PM -20.9410 166.7190 204° Southwest 452 520 38,000  Level FlightAware
03:32PM -21.0120 166.6850 204° Southwest 446 513 38,000  Level FlightAware
03:32PM -21.0790 166.6540 203° Southwest 440 506 38,000  Level FlightAware
03:33PM -21.1500 166.6200 204° Southwest 440 506 38,000  Level FlightAware
03:34PM -21.2490 166.5730 204° Southwest 435 501 38,000  Level FlightAware
03:35PM -21.3790 166.5110 204° Southwest 433 498 38,000  Level FlightAware
03:35PM -21.4390 166.4820 204° Southwest 432 497 38,000  Level FlightAware
03:36PM -21.5050 166.4510 204° Southwest 432 497 38,000  Level FlightAware
03:37PM -21.5800 166.4160 203° Southwest 431 496 38,000  Level FlightAware
03:38PM -21.6880 166.3640 204° Southwest 424 488 38,000  Level FlightAware
03:38PM -21.7530 166.3330 204° Southwest 414 476 38,000  Level FlightAware
03:39PM -21.8120 166.3040 205° Southwest 414 476 38,000  Level FlightAware
03:39PM -21.8790 166.2720 204° Southwest 414 476 38,000  Level FlightAware
03:40PM -21.9340 166.2460 204° Southwest 413 475 38,000  Level FlightAware
03:41PM -22.0340 166.1820 211° Southwest 395 455 38,000  Level FlightAware
03:42PM -22.0740 166.1400 224° Southwest 393 452 38,000  Level FlightAware
03:43PM -22.1670 166.0430 224° Southwest 393 452 38,000  Level FlightAware
03:43PM -22.2160 165.9910 224° Southwest 393 452 38,000  Level FlightAware
03:44PM -22.2600 165.9450 224° Southwest 391 450 38,000  Level FlightAware
03:45PM -22.3450 165.8550 224° Southwest 388 447 38,000  Level FlightAware
03:46PM -22.4180 165.7780 224° Southwest 391 450 38,000  Level FlightAware
03:46PM -22.4580 165.7370 223° Southwest 392 451 38,000  Level FlightAware
03:48PM -22.5410 165.6490 224° Southwest 393 452 38,000  Level FlightAware
03:48PM -22.5870 165.6000 225° Southwest 396 456 38,000  Level FlightAware
03:49PM -22.6260 165.5600 223° Southwest 397 457 38,000  Level FlightAware
03:49PM -22.6750 165.5070 225° Southwest 398 458 38,000  Level FlightAware
03:50PM -22.7270 165.4530 224° Southwest 399 459 38,000  Level FlightAware
03:51PM -22.7820 165.3940 225° Southwest 400 460 38,000  Level FlightAware
03:52PM -22.8600 165.3110 224° Southwest 387 445 38,000  Level FlightAware
03:52PM -22.8960 165.2720 225° Southwest 388 447 38,000  Level FlightAware
03:53PM -22.9370 165.2290 224° Southwest 388 447 38,000  Level FlightAware
03:54PM -23.0240 165.1360 225° Southwest 387 445 38,000  Level FlightAware
03:55PM -23.0920 165.0630 225° Southwest 371 427 38,000  Level FlightAware
03:55PM -23.1310 165.0220 224° Southwest 367 422 38,000  Level FlightAware
03:56PM -23.1980 164.9500 225° Southwest 365 420 38,000  Level FlightAware
03:57PM -23.2340 164.9110 225° Southwest 362 417 38,000  Level FlightAware
03:57PM -23.2750 164.8670 225° Southwest 362 417 38,000  Level FlightAware
03:58PM -23.3380 164.8000 224° Southwest 360 414 38,000  Level FlightAware
03:59PM -23.3990 164.7360 224° Southwest 360 414 38,000  Level FlightAware
04:00PM -23.4360 164.6970 224° Southwest 360 414 38,000  Level FlightAware
04:01PM -23.4970 164.6330 224° Southwest 360 414 38,000  Level FlightAware
04:01PM -23.5320 164.5960 224° Southwest 360 414 38,000  Level FlightAware
04:02PM -23.5690 164.5580 223° Southwest 360 414 38,000  Level FlightAware
04:02PM -23.5930 164.5320 225° Southwest 360 414 38,000  Level FlightAware
04:03PM -23.6300 164.4930 224° Southwest 360 414 38,000  Level FlightAware
04:03PM -23.6660 164.4550 224° Southwest 360 414 38,000  Level FlightAware
04:04PM -23.7030 164.4160 224° Southwest 360 414 38,000  Level FlightAware
04:04PM -23.7280 164.3890 225° Southwest 360 414 38,000  Level FlightAware
04:05PM -23.7630 164.3530 223° Southwest 360 414 38,000  Level FlightAware
04:06PM -23.8130 164.3000 224° Southwest 360 414 38,000  Level FlightAware
04:07PM -23.8860 164.2220 224° Southwest 360 414 38,000  Level FlightAware
04:07PM -23.8980 164.2100 222° Southwest 360 414 38,000  Level FlightAware
04:10PM -24.0795 164.0091 225° Southwest  Level FlightAware Approximate
04:11PM -24.1607 163.9190 225° Southwest  Level FlightAware Approximate
04:12PM -24.2419 163.8288 225° Southwest  Level FlightAware Approximate
04:13PM -24.3230 163.7384 225° Southwest  Level FlightAware Approximate
04:14PM -24.4040 163.6479 225° Southwest  Level FlightAware Approximate
04:15PM -24.4850 163.5573 225° Southwest  Level FlightAware Approximate
04:15PM -25.0037 162.9713 225° Southwest 34,000  Level Aus ATC (Calculated)
04:15PM -25.0037 162.9713 225° Southwest 34,000 60 Level Aus ATC (Calculated)
04:17PM -24.8636 163.1394 47° Northeast  Level FlightAware Approximate
04:18PM -24.9380 163.0502 227° Southwest  Level FlightAware Approximate
04:18PM -25.3127 162.6240 226° Southwest 34,000  Level Aus ATC (Calculated)
04:20PM -25.1681 162.7878 46° Northeast  Level FlightAware Approximate
04:20PM -25.4990 162.4133 226° Southwest 34,000  Level Aus ATC (Calculated)
04:21PM -25.4223 162.5005 46° Northeast  Level FlightAware Approximate
04:22PM -25.4981 162.4123 225° Southwest  Level Estimated
04:23PM -25.5749 162.3252 226° Southwest  Level FlightAware Approximate
04:23PM -25.7999 162.0709 226° Southwest 34,000  Level Aus ATC (Calculated)
04:25PM -25.9263 161.9263 226° Southwest  Level FlightAware Approximate
04:26PM -26.0020 161.8394 226° Southwest  Level FlightAware Approximate
04:27PM -26.0777 161.7523 226° Southwest  Level FlightAware Approximate
04:28PM -26.1534 161.6652 226° Southwest  Level FlightAware Approximate
04:29PM -26.2290 161.5779 226° Southwest  Level FlightAware Approximate
04:30PM -26.3046 161.4905 226° Southwest  Level FlightAware Approximate
04:31PM -26.3801 161.4030 226° Southwest  Level FlightAware Approximate
04:32PM -26.4555 161.3154 226° Southwest  Level FlightAware Approximate
04:32PM -26.5733 161.1783 226° Southwest 34,000  Level Aus ATC (Calculated)
04:34PM -26.7226 161.0039 226° Southwest  Level FlightAware Approximate
04:35PM -26.7978 160.9157 226° Southwest  Level FlightAware Approximate
04:36PM -26.8730 160.8275 226° Southwest  Level FlightAware Approximate
04:37PM -26.9481 160.7391 226° Southwest  Level FlightAware Approximate
04:37PM -27.1017 160.5577 226° Southwest 34,000  Level Aus ATC (Calculated)
04:39PM -27.2166 160.4216 226° Southwest  Level FlightAware Approximate
04:40PM -27.2914 160.3327 227° Southwest  Level FlightAware Approximate
04:41PM -27.3662 160.2437 227° Southwest  Level FlightAware Approximate
04:42PM -27.4409 160.1546 227° Southwest  Level FlightAware Approximate
04:43PM -27.5156 160.0653 227° Southwest  Level FlightAware Approximate
04:44PM -27.5902 159.9759 227° Southwest  Level FlightAware Approximate
04:44PM -27.7517 159.7817 227° Southwest 34,000  Level Aus ATC (Calculated)
04:46PM -27.8621 159.6485 227° Southwest  Level FlightAware Approximate
04:46PM -27.9405 159.5537 227° Southwest 34,000  Level Aus ATC (Calculated)
04:47PM -27.9365 159.5585 227° Southwest  Level FlightAware Approximate
04:48PM -28.0506 159.4200 227° Southwest  Level FlightAware Approximate
04:48PM -28.1367 159.3153 227° Southwest 34,000  Level Aus ATC (Calculated)
04:50PM -28.2466 159.1811 227° Southwest  Level FlightAware Approximate
04:51PM -28.3207 159.0905 227° Southwest  Level FlightAware Approximate
04:52PM -28.2466 159.1811 47° Northeast  Level FlightAware Approximate
04:52PM -28.4582 158.9214 227° Southwest 34,000  Level Aus ATC (Calculated)
04:54PM -28.3387 159.0683 47° Northeast  Level FlightAware Approximate
04:55PM -28.2647 159.1590 47° Northeast  Level FlightAware Approximate
04:56PM -28.1906 159.2495 47° Northeast  Level FlightAware Approximate
04:56PM -28.8242 158.4683 227° Southwest 34,000  Level Aus ATC (Calculated)
04:57PM -28.2647 159.1590 227° Southwest  Level FlightAware Approximate
04:58PM -28.7442 158.5677 47° Northeast  Level FlightAware Approximate
04:58PM -28.9458 158.3166 227° Southwest 34,000  Level Aus ATC (Calculated)
05:00PM -28.7990 158.4997 48° Northeast  Level FlightAware Approximate
05:00PM -29.1482 158.0629 49° Northeast 34,000  Level Aus ATC (Calculated)
05:01PM -29.2290 157.9612 48° Northeast 34,000 360 Level Aus ATC (Calculated)
05:02PM -29.0544 158.1807 48° Northeast  Level FlightAware Approximate
05:03PM -29.1225 158.0952 48° Northeast  Level FlightAware Approximate
05:04PM -29.0454 158.1920 48° Northeast  Level FlightAware Approximate
05:05PM -28.9682 158.2886 48° Northeast  Level FlightAware Approximate
05:05PM -29.5112 157.6038 48° Northeast 34,000  Level Aus ATC (Calculated)
05:07PM -29.3730 157.7792 48° Northeast  Level FlightAware Approximate
05:08PM -29.4478 157.6798 227° Southwest  Level Estimated
05:09PM -29.5246 157.5824 228° Southwest  Level FlightAware Approximate
05:10PM -29.6014 157.4848 228° Southwest  Level FlightAware Approximate
05:10PM -29.9527 157.0383 48° Northeast 34,000  Level Aus ATC (Calculated)
05:12PM -30.0975 156.8510 228° Southwest  Level FlightAware Approximate
05:13PM -30.1736 156.7522 228° Southwest  Level FlightAware Approximate
05:14PM -30.2496 156.6533 228° Southwest  Level FlightAware Approximate
05:15PM -30.3256 156.5542 228° Southwest  Level FlightAware Approximate
05:15PM -30.3519 156.5198 48° Northeast 34,000  Level Aus ATC (Calculated)
05:16PM -29.0981 158.1284 228° Southwest 456 525 40,000 4,860 Climbing Aus ATC (RADAR)
05:16PM -29.1160 158.1042 230° Southwest 427 491 40,000  Level Aus ATC (RADAR)
05:17PM -29.2141 157.9823 227° Southwest 416 479 40,000  Level Aus ATC (RADAR)
05:18PM -29.2459 157.9418 228° Southwest 414 476 40,000  Level Aus ATC (RADAR)
05:18PM -29.2913 157.8844 228° Southwest 415 478 40,000  Level Aus ATC (RADAR)
05:19PM -29.3565 157.8027 228° Southwest 414 476 40,000  Level Aus ATC (RADAR)
05:20PM -29.3988 157.7466 229° Southwest 408 470 40,000  Level Aus ATC (RADAR)
05:20PM -29.4694 157.6571 228° Southwest 410 472 40,000  Level Aus ATC (RADAR)
05:21PM -29.4885 157.6327 228° Southwest 410 472 40,000  Level Aus ATC (RADAR)
05:22PM -29.5924 157.5014 228° Southwest 413 475 40,000  Level Aus ATC (RADAR)
05:23PM -29.6310 157.4523 228° Southwest 413 475 40,000  Level Aus ATC (RADAR)
05:23PM -29.6757 157.3951 228° Southwest 412 474 40,000  Level Aus ATC (RADAR)
05:24PM -29.7329 157.3218 228° Southwest 411 473 40,000  Level Aus ATC (RADAR)
05:25PM -29.7877 157.2540 227° Southwest 421 484 40,000  Level Aus ATC (RADAR)
05:25PM -29.8552 157.1644 229° Southwest 413 475 40,000  Level Aus ATC (RADAR)
05:26PM -29.8753 157.1390 228° Southwest 415 478 40,000  Level Aus ATC (RADAR)
05:27PM -29.9720 157.0137 228° Southwest 419 482 40,000  Level Aus ATC (RADAR)
05:27PM -30.0051 156.9716 228° Southwest 422 486 40,000  Level Aus ATC (RADAR)
05:28PM -30.0377 156.9292 228° Southwest 423 487 40,000  Level Aus ATC (RADAR)
05:28PM -30.0836 156.8696 228° Southwest 424 488 40,000  Level Aus ATC (RADAR)
05:29PM -30.1436 156.7919 228° Southwest 429 494 40,000  Level Aus ATC (RADAR)
05:30PM -30.1902 156.7315 228° Southwest 430 495 40,000  Level Aus ATC (RADAR)
05:31PM -30.2635 156.6360 228° Southwest 432 497 40,000  Level Aus ATC (RADAR)
05:31PM -30.2833 156.6100 229° Southwest 431 496 40,000  Level Aus ATC (RADAR)
05:32PM -30.4156 156.4369 228° Southwest 430 495 40,000 -60 Level Aus ATC (RADAR)
05:33PM -30.4423 156.4019 228° Southwest 432 497 39,900 -120 Descending Aus ATC (RADAR)
05:33PM -30.4953 156.3319 229° Southwest 433 498 39,900  Level Aus ATC (RADAR)
05:34PM -30.5552 156.2533 229° Southwest 433 498 39,900  Level Aus ATC (RADAR)
05:35PM -30.6019 156.1922 228° Southwest 433 498 39,900  Level Aus ATC (RADAR)
05:36PM -30.6614 156.1136 229° Southwest 432 497 39,900  Level Aus ATC (RADAR)
05:36PM -30.7012 156.0611 229° Southwest 433 498 39,900  Level Aus ATC (RADAR)
05:38PM -30.8208 155.9050 228° Southwest 430 495 39,900  Level Aus ATC (RADAR)
05:38PM -30.8639 155.8713 214° Southwest 438 504 39,900  Level Aus ATC (RADAR)
05:38PM -30.9224 155.8396 205° Southwest 458 527 39,900  Level Aus ATC (RADAR)
05:39PM -31.0086 155.7917 205° Southwest 460 529 39,900  Level Aus ATC (RADAR)
05:40PM -31.0755 155.7543 206° Southwest 459 528 39,900  Level Aus ATC (RADAR)
05:41PM -31.1708 155.7008 206° Southwest 458 527 39,900  Level Aus ATC (RADAR)
05:41PM -31.2090 155.6793 206° Southwest 458 527 39,900  Level Aus ATC (RADAR)
05:42PM -31.3708 155.5885 206° Southwest 458 527 39,900  Level Aus ATC (RADAR)
05:43PM -31.4184 155.5616 206° Southwest 458 527 39,900 60 Level Aus ATC (RADAR)
05:43PM -31.4498 155.5439 206° Southwest 40,000 180 Climbing FlightAware ADS-B (YPLB)
05:43PM -31.4680 155.5337 206° Southwest 462 532 40,000  Level FlightAware ADS-B (YPLB)
05:44PM -31.5296 155.4990 206° Southwest 464 534 40,000  Level FlightAware ADS-B (YPLB)
05:44PM -31.5876 155.4662 206° Southwest 465 535 40,000  Level FlightAware ADS-B (YPLB)
05:45PM -31.6370 155.4390 206° Southwest 466 536 40,000 -240 Level FlightAware
05:45PM -31.6504 155.4308 206° Southwest 466 536 39,900 -120 Descending Aus ATC (RADAR)
05:46PM -31.7492 155.3747 206° Southwest 477 549 39,900 60 Level Aus ATC (RADAR)
05:46PM -31.7430 155.3800 206° Southwest 466 536 40,000 60 Climbing FlightAware
05:47PM -31.8579 155.3114 207° Southwest 460 529 40,000  Level FlightAware ADS-B (YPLB)
05:47PM -31.9113 155.2640 217° Southwest 453 521 40,000  Level FlightAware ADS-B (YPLB)
05:48PM -31.9554 155.2116 225° Southwest 450 518 40,000 -120 Level FlightAware ADS-B (YPLB)
05:48PM -32.0288 155.1236 225° Southwest 450 518 39,900  Descending Aus ATC (RADAR)
05:49PM -32.0406 155.1089 225° Southwest 451 519 40,000 120 Climbing FlightAware ADS-B (YPLB)
05:49PM -32.0862 155.0538 226° Southwest 450 518 40,000 -120 Level FlightAware ADS-B (YPLB)
05:50PM -32.1518 154.9744 226° Southwest 449 517 39,900  Descending Aus ATC (RADAR)
05:50PM -32.1736 154.9478 226° Southwest 451 519 40,000 60 Climbing FlightAware ADS-B (YPLB)
05:51PM -32.2288 154.8810 226° Southwest 449 517 40,000  Level FlightAware ADS-B (YPLB)
05:51PM -32.2880 154.8091 226° Southwest 448 516 40,000  Level FlightAware ADS-B (YPLB)
05:52PM -32.3452 154.7396 226° Southwest 435 501 40,000  Level FlightAware ADS-B (YPLB)
05:53PM -32.3880 154.6872 226° Southwest 426 490 40,000  Level FlightAware ADS-B (YPLB)
05:53PM -32.4303 154.6357 226° Southwest 434 499 40,000  Level FlightAware ADS-B (YPLB)
05:54PM -32.4874 154.5661 226° Southwest 435 501 40,000  Level FlightAware ADS-B (YPLB)
05:54PM -32.5256 154.5197 226° Southwest 440 506 40,000 -120 Level FlightAware ADS-B (YPLB)
05:55PM -32.5841 154.4486 226° Southwest 440 506 39,900  Descending Aus ATC (RADAR)
05:55PM -32.5848 154.4474 226° Southwest 435 501 40,000 120 Climbing FlightAware ADS-B (YPLB)
05:56PM -32.6398 154.3801 226° Southwest 431 496 40,000  Level FlightAware ADS-B (YPLB)
05:56PM -32.6829 154.3272 226° Southwest 439 505 40,000  Level FlightAware ADS-B (YPLB)
05:57PM -32.7268 154.2733 226° Southwest 445 512 40,000  Level FlightAware ADS-B (YPLB)
05:57PM -32.7677 154.2228 226° Southwest 449 517 40,000  Level FlightAware ADS-B (YPLB)
05:58PM -32.8176 154.1621 226° Southwest 449 517 40,000  Level Aus ATC (RADAR)
05:58PM -32.8265 154.1502 226° Southwest 451 519 40,000  Level FlightAware ADS-B (YPLB)
05:58PM -32.8818 154.0818 226° Southwest 454 522 40,000  Level FlightAware ADS-B (YPLB)
05:59PM -32.9263 154.0268 226° Southwest 456 525 40,000  Level FlightAware ADS-B (YPLB)
05:59PM -32.9708 153.9717 226° Southwest 459 528 40,000  Level FlightAware ADS-B (YPLB)
06:00PM -33.0271 153.9021 226° Southwest 460 529 40,000  Level FlightAware ADS-B (YPLB)
06:01PM -33.0758 153.8414 226° Southwest 461 531 40,000  Level FlightAware ADS-B (YPLB)
06:01PM -33.1196 153.7868 226° Southwest 459 528 40,000  Level FlightAware ADS-B (YPLB)
06:02PM -33.1755 153.7168 226° Southwest 458 527 40,000  Level FlightAware ADS-B (YPLB)
06:02PM -33.2202 153.6607 226° Southwest 459 528 40,000  Level FlightAware ADS-B (YPLB)
06:03PM -33.2645 153.6051 226° Southwest 459 528 40,000  Level FlightAware ADS-B (YPLB)
06:03PM -33.3063 153.5531 226° Southwest 460 529 40,000  Level FlightAware ADS-B (YPLB)
06:04PM -33.3524 153.4954 226° Southwest 460 529 40,000  Level FlightAware ADS-B (YPLB)
06:04PM -33.3968 153.4395 226° Southwest 449 517 40,000  Level Aus ATC (RADAR)
06:04PM -33.4132 153.4187 226° Southwest 459 528 40,000  Level FlightAware ADS-B (YPLB)
06:05PM -33.4562 153.3644 226° Southwest 459 528 40,000  Level FlightAware ADS-B (YPLB)
06:06PM -33.5136 153.2921 226° Southwest 459 528 40,000 -420 Level FlightAware ADS-B (YPLB)
06:06PM -33.5661 153.2256 227° Southwest 457 526 39,500 -960 Descending FlightAware ADS-B (YPLB)
06:07PM -33.6168 153.1610 227° Southwest 455 524 38,900 -960 Descending FlightAware ADS-B (YPLB)
06:07PM -33.6721 153.0908 227° Southwest 464 534 38,400 -780 Descending FlightAware ADS-B (YPLB)
06:08PM -33.7191 153.0310 227° Southwest 463 533 38,000 -720 Descending FlightAware ADS-B (YPLB)
06:09PM -33.7764 152.9580 227° Southwest 464 534 37,600 -660 Descending FlightAware ADS-B (YPLB)
06:09PM -33.8202 152.9022 227° Southwest 467 537 37,300 -720 Descending FlightAware ADS-B (YPLB)
06:10PM -33.8648 152.8452 227° Southwest 454 522 36,900 -840 Descending FlightAware ADS-B (YPLB)
06:10PM -33.9068 152.7908 227° Southwest 450 518 36,500 -900 Descending FlightAware ADS-B (YPLB)
06:11PM -33.9359 152.7531 227° Southwest 447 514 36,000 -900 Descending FlightAware ADS-B (YSSY / SYD)
06:11PM -33.9924 152.6804 227° Southwest 439 505 35,600 -1,020 Descending FlightAware ADS-B (YPLB)
06:12PM -34.0345 152.6261 227° Southwest 436 502 35,000 -1,140 Descending FlightAware ADS-B (YPLB)
06:12PM -34.0486 152.6079 227° Southwest 439 505 34,800 -900 Descending FlightAware ADS-B (YSSY / SYD)
06:12PM -34.0997 152.5421 227° Southwest 445 512 34,300 -900 Descending FlightAware ADS-B (YPLB)
06:13PM -34.1340 152.5094 218° Southwest 438 504 34,000 -960 Descending FlightAware ADS-B (YPLB)
06:13PM -34.1564 152.5016 196° South 433 498 33,800 -1,320 Descending FlightAware ADS-B (YPLB)
06:13PM -34.1736 152.5010 182° South 429 494 33,600 -1,020 Descending FlightAware ADS-B (YPLB)
06:13PM -34.1924 152.5056 169° South 426 490 33,500 -900 Descending FlightAware ADS-B (YPLB)
06:13PM -34.2092 152.5151 155° Southeast 420 483 33,300 -1,200 Descending FlightAware ADS-B (YPLB)
06:14PM -34.2267 152.5323 141° Southeast 414 476 33,100 -1,200 Descending FlightAware ADS-B (YPLB)
06:14PM -34.2379 152.5508 126° Southeast 409 471 32,900 -900 Descending FlightAware ADS-B (YPLB)
06:14PM -34.2449 152.5700 114° Southeast 405 466 32,800 -900 Descending FlightAware ADS-B (YPLB)
06:14PM -34.2485 152.5908 102° East 401 461 32,600 -1,200 Descending FlightAware ADS-B (YPLB)
06:15PM -34.2557 152.6720 96° East 393 452 31,900 -1,140 Descending FlightAware ADS-B (YPLB)
06:15PM -34.2617 152.7414 96° East 383 441 31,300 -1,080 Descending FlightAware ADS-B (YPLB)
06:16PM -34.2675 152.8078 96° East 374 430 30,800 -1,080 Descending FlightAware ADS-B (YPLB)
06:16PM -34.2642 152.8479 84° East 365 420 30,400 -1,020 Descending FlightAware ADS-B (YPLB)
06:16PM -34.2571 152.8673 66° East 361 415 30,300 -900 Descending FlightAware ADS-B (YPLB)
06:16PM -34.2473 152.8836 54° Northeast 362 417 30,100 -1,200 Descending FlightAware ADS-B (YPLB)
06:17PM -34.2328 152.8993 42° Northeast 361 415 29,900 -1,080 Descending FlightAware ADS-B (YPLB)
06:17PM -34.2090 152.9133 26° Northeast 370 426 29,600 -1,080 Descending FlightAware ADS-B (YPLB)
06:17PM -34.1906 152.9175 11° North 370 426 29,400 -1,320 Descending FlightAware ADS-B (YPLB)
06:17PM -34.1774 152.9175 360° North 369 425 29,200 -2,040 Descending FlightAware ADS-B (YPLB)
06:17PM -34.1539 152.9110 347° North 370 426 28,700 -1,740 Descending FlightAware ADS-B (YPLB)
06:18PM -34.1278 152.8912 328° Northwest 366 421 28,300 -1,380 Descending FlightAware ADS-B (YPLB)
06:18PM -34.1155 152.8741 311° West 364 419 28,000 -1,620 Descending FlightAware ADS-B (YPLB)
06:18PM -34.1026 152.8387 294° West 367 422 27,500 -2,040 Descending FlightAware ADS-B (YPLB)
06:19PM -34.0968 152.7772 276° West 370 426 26,400 -2,280 Descending FlightAware ADS-B (YPLB)
06:19PM -34.0899 152.6963 276° West 376 433 24,900 -2,160 Descending FlightAware ADS-B (YPLB)
06:20PM -34.0839 152.6334 277° West 372 428 23,900 -1,800 Descending FlightAware ADS-B (YPLB)
06:20PM -34.0785 152.6148 289° West 370 426 23,700 -1,620 Descending FlightAware ADS-B (YPLB)
06:21PM -34.0506 152.5583 301° West 362 417 22,800 -1,620 Descending FlightAware ADS-B (YPLB)
06:21PM -34.0370 152.5202 293° West 360 414 22,300 -1,680 Descending FlightAware ADS-B (YPLB)
06:21PM -34.0361 152.5009 273° West 359 413 22,000 -1,500 Descending FlightAware ADS-B (YPLB)
06:22PM -34.0423 152.4428 263° West 355 409 21,300 -1,560 Descending FlightAware ADS-B (YPLB)
06:22PM -34.0503 152.3649 263° West 353 406 20,200 -1,740 Descending FlightAware ADS-B (YPLB)
06:23PM -34.0546 152.3044 265° West 353 406 19,300 -1,800 Descending FlightAware ADS-B (YPLB)
06:23PM -34.0505 152.2422 265° West 345 397 18,400 -1,680 Descending Aus ATC (RADAR)
06:23PM -34.0493 152.2291 265° West 352 405 18,300 -1,620 Descending FlightAware ADS-B (YPLB)
06:24PM -34.0439 152.1684 276° West 352 405 17,400 -1,680 Descending FlightAware ADS-B (YPLB)
06:24PM -34.0387 152.1103 276° West 350 403 16,600 -1,620 Descending FlightAware ADS-B (YPLB)
06:25PM -34.0334 152.0531 276° West 349 402 15,800 -1,620 Descending FlightAware ADS-B (YPLB)
06:25PM -34.0275 151.9952 277° West 347 399 15,000 -1,680 Descending FlightAware ADS-B (YPLB)
06:26PM -34.0215 151.9362 277° West 345 397 14,100 -1,680 Descending FlightAware ADS-B (YPLB)
06:27PM -34.0144 151.8641 277° West 343 395 13,100 -1,620 Descending FlightAware ADS-B (YPLB)
06:27PM -34.0083 151.8053 277° West 340 391 12,300 -1,620 Descending FlightAware ADS-B (YPLB)
06:28PM -34.0027 151.7512 277° West 339 390 11,500 -1,680 Descending FlightAware ADS-B (YPLB)
06:28PM -33.9967 151.6911 277° West 336 387 10,600 -1,680 Descending FlightAware ADS-B (YPLB)
06:29PM -33.9907 151.6330 277° West 332 382 9,800 -1,620 Descending FlightAware ADS-B (YPLB)
06:29PM -33.9871 151.5992 277° West 329 379 9,300 -1,500 Descending FlightAware ADS-B (YPLB)
06:29PM -33.9829 151.5590 277° West 323 372 8,800 -1,140 Descending FlightAware ADS-B (YSSY / SYD)
06:30PM -33.9809 151.5400 277° West 323 372 8,700 -420 Descending FlightAware ADS-B
06:30PM -33.9783 151.5150 277° West 308 354 8,600 -480 Descending FlightAware ADS-B (YSSY / SYD)
06:30PM -33.9742 151.4727 277° West 294 338 8,400 -960 Descending FlightAware ADS-B (YSSY / SYD)
06:31PM -33.9711 151.4436 277° West 291 335 8,000 -1,200 Descending FlightAware ADS-B (YPLB)
06:31PM -33.9681 151.4160 277° West 287 330 7,700 -1,320 Descending FlightAware ADS-B
06:31PM -33.9654 151.3914 278° West 285 328 7,300 -1,200 Descending FlightAware ADS-B (YSSY / SYD)
06:31PM -33.9629 151.3685 278° West 281 323 7,100 -1,140 Descending FlightAware ADS-B
06:31PM -33.9618 151.3574 277° West 279 321 6,900 -1,140 Descending FlightAware ADS-B
06:32PM -33.9598 151.3434 280° West 278 320 6,800 -420 Descending FlightAware ADS-B (YSSY / SYD)
06:32PM -33.9588 151.3396 287° West 278 320 6,800 -480 Level FlightAware ADS-B (YPLB)
06:32PM -33.9533 151.3265 297° West 279 321 6,700 -1,320 Descending FlightAware ADS-B (YPLB)
06:32PM -33.9487 151.3196 308° West 279 321 6,500 -1,140 Descending FlightAware ADS-B (YSSY / SYD)
06:32PM -33.9427 151.3132 319° Northwest 278 320 6,500 -1,080 Level FlightAware ADS-B (YPLB)
06:32PM -33.9285 151.3050 334° Northwest 275 316 6,200 -1,440 Descending FlightAware ADS-B (YPLB)
06:32PM -33.9259 151.3041 344° North 275 316 6,100 -600 Descending FlightAware ADS-B (YSSY / SYD)
06:33PM -33.9045 151.2986 348° North 269 310 6,000 -420 Descending FlightAware ADS-B (YPLB)
06:33PM -33.8845 151.2936 348° North 261 300 5,900 -720 Descending FlightAware ADS-B (YSSY / SYD)
06:33PM -33.8615 151.2875 347° North 255 293 5,600 -780 Descending FlightAware ADS-B (YSSY / SYD)
06:33PM -33.8396 151.2814 347° North 254 292 5,400 -600 Descending FlightAware ADS-B (YSSY / SYD)
06:34PM -33.8156 151.2749 347° North 251 289 5,200 -660 Descending FlightAware ADS-B (YSSY / SYD)
06:34PM -33.7968 151.2700 348° North 250 288 5,000 -780 Descending FlightAware ADS-B (YSSY / SYD)
06:34PM -33.7789 151.2654 348° North 247 284 4,800 -840 Descending FlightAware ADS-B (YPLB)
06:35PM -33.7622 151.2611 348° North 246 283 4,600 -600 Descending FlightAware ADS-B (YSSY / SYD)
06:35PM -33.7458 151.2568 348° North 247 284 4,500 -540 Descending FlightAware ADS-B (YPLB)
06:35PM -33.7225 151.2509 348° North 248 285 4,300 -660 Descending FlightAware ADS-B (YPLB)
06:35PM -33.7081 151.2472 348° North 250 288 4,100 -720 Descending FlightAware ADS-B (YSSY / SYD)
06:36PM -33.6956 151.2423 342° North 251 289 4,000 -420 Descending FlightAware ADS-B (YSSY / SYD)
06:36PM -33.6890 151.2367 325° Northwest 248 285 4,000  Level FlightAware ADS-B (YPLB)
06:36PM -33.6870 151.2341 314° West 241 277 4,000  Level FlightAware ADS-B (YSSY / SYD)
06:36PM -33.6833 151.2283 307° West 238 274 4,000  Level FlightAware ADS-B (YPLB)
06:36PM -33.6804 151.2198 293° West 223 257 4,000  Level FlightAware ADS-B (YSSY / SYD)
06:36PM -33.6791 151.2083 277° West 211 243 4,000  Level FlightAware ADS-B (YSSY / SYD)
06:36PM -33.6787 151.1923 272° West 209 241 4,000  Level FlightAware ADS-B (YPLB)
06:37PM -33.6781 151.1708 272° West 212 244 4,000  Level FlightAware ADS-B (YSSY / SYD)
06:37PM -33.6782 151.1631 269° West 203 234 4,000  Level FlightAware ADS-B (YSSY / SYD)
06:37PM -33.6791 151.1575 259° West 203 234 4,000  Level FlightAware ADS-B (YPLB)
06:37PM -33.6825 151.1494 243° Southwest 185 213 4,000  Level FlightAware ADS-B (YSSY / SYD)
06:37PM -33.6882 151.1435 221° Southwest 176 203 4,000 -360 Level FlightAware ADS-B (YSSY / SYD)
06:37PM -33.6945 151.1404 202° Southwest 170 196 3,900 -480 Descending FlightAware ADS-B (YSSY / SYD)
06:37PM -33.6976 151.1391 199° South 170 196 3,900  Level FlightAware ADS-B (YPLB)
06:37PM -33.7036 151.1366 199° South 174 200 3,900 -300 Level FlightAware ADS-B
06:38PM -33.7127 151.1334 196° South 174 200 3,800 -300 Descending FlightAware ADS-B
06:38PM -33.7205 151.1333 181° South 167 192 3,800 -360 Level FlightAware ADS-B (YSSY / SYD)
06:38PM -33.7261 151.1335 178° South 167 192 3,700 -420 Descending FlightAware ADS-B (YPLB)
06:38PM -33.7441 151.1347 177° South 168 193 3,600 -240 Descending FlightAware ADS-B (YSSY / SYD)
06:39PM -33.7457 151.1350 171° South 168 193 3,600 -360 Level FlightAware ADS-B
06:39PM -33.7578 151.1378 169° South 165 190 3,500 -420 Descending FlightAware ADS-B
06:39PM -33.7744 151.1427 166° South 149 171 3,400 -300 Descending FlightAware ADS-B (YSSY / SYD)
06:39PM -33.7867 151.1461 167° South 145 167 3,300 -480 Descending FlightAware ADS-B (YSSY / SYD)
06:39PM -33.7921 151.1476 167° South 143 165 3,200 -900 Descending FlightAware ADS-B (YPLB)
06:40PM -33.8055 151.1510 168° South 142 163 2,900 -840 Descending FlightAware ADS-B (YPLB)
06:40PM -33.8151 151.1535 168° South 141 162 2,700 -720 Descending FlightAware ADS-B (YSSY / SYD)
06:40PM -33.8274 151.1566 168° South 137 158 2,500 -720 Descending FlightAware ADS-B (YSSY / SYD)
06:41PM -33.8368 151.1591 167° South 136 157 2,300 -780 Descending FlightAware ADS-B (YPLB)
06:41PM -33.8481 151.1620 168° South 135 155 2,100 -660 Descending FlightAware ADS-B (YPLB)
06:41PM -33.8579 151.1645 168° South 134 154 1,900 -780 Descending FlightAware ADS-B (YSSY / SYD)
06:42PM -33.8714 151.1680 168° South 124 143 1,600 -780 Descending FlightAware ADS-B (YSSY / SYD)
06:42PM -33.8813 151.1705 168° South 119 137 1,400 -600 Descending FlightAware ADS-B (YSSY / SYD)
06:42PM -33.8928 151.1735 168° South 113 130 1,200 -600 Descending FlightAware ADS-B (YSSY / SYD)
06:43PM -33.9019 151.1759 168° South 104 120 1,000 -540 Descending FlightAware ADS-B (YSSY / SYD)
06:43PM -33.9103 151.1782 167° South 107 123 900 -540 Descending FlightAware ADS-B (YSSY / SYD)
06:44PM -33.9208 151.1808 168° South 109 125 500 -660 Descending FlightAware ADS-B (YSSY / SYD)
06:44PM -33.9520 151.1890 168° South 116 133 -660 Descending FlightAware
06:45PM -33.9590 151.1910 167° South 88 101  Level FlightAware